Wetterdaten: Woche 04.05.15 - 10.05.15 (KW19)
Datum Zeit Temp. A. Feuchte A. Luftdruck Regen Wind Richtung Taupunkt Windchill Windben
04.05.2015 00:00 11,7 C 82 % 1011,1 hPa 0,0 l/m 0,1 km/h N 8,7 C 11,7 C 2,4 km/h
04.05.2015 01:00 11,7 C 81 % 1011,0 hPa 0,0 l/m 0,0 km/h N 8,5 C 11,7 C 0,0 km/h
04.05.2015 02:00 11,8 C 81 % 1010,7 hPa 0,0 l/m 0,0 km/h N 8,5 C 11,8 C 0,8 km/h
04.05.2015 03:00 12,0 C 80 % 1010,5 hPa 0,0 l/m 0,8 km/h N 8,5 C 12,0 C 5,6 km/h
04.05.2015 04:00 11,9 C 79 % 1010,4 hPa 0,0 l/m 0,6 km/h N 8,4 C 11,9 C 5,2 km/h
04.05.2015 05:00 11,9 C 78 % 1010,5 hPa 0,0 l/m 0,4 km/h N 8,2 C 11,9 C 4,4 km/h
04.05.2015 06:00 11,8 C 78 % 1010,8 hPa 0,0 l/m 0,0 km/h N 8,1 C 11,8 C 0,4 km/h
04.05.2015 07:00 12,3 C 78 % 1011,5 hPa 0,0 l/m 0,1 km/h N 8,5 C 12,3 C 2,0 km/h
04.05.2015 08:00 14,1 C 77 % 1012,0 hPa 0,0 l/m 0,3 km/h N 10,1 C 14,1 C 4,0 km/h
04.05.2015 09:00 16,5 C 82 % 1012,0 hPa 0,0 l/m 0,4 km/h N 13,4 C 16,5 C 4,8 km/h
04.05.2015 10:00 19,4 C 77 % 1012,0 hPa 0,0 l/m 1,2 km/h N 15,3 C 19,4 C 5,2 km/h
04.05.2015 11:00 20,8 C 71 % 1012,3 hPa 0,0 l/m 5,9 km/h N 15,3 C 20,7 C 19,7 km/h
04.05.2015 12:00 22,1 C 65 % 1012,0 hPa 0,0 l/m 6,9 km/h N 15,3 C 21,7 C 20,5 km/h
04.05.2015 13:00 22,7 C 62 % 1011,5 hPa 0,0 l/m 5,2 km/h N 15,0 C 22,7 C 18,1 km/h
04.05.2015 14:00 23,8 C 60 % 1011,2 hPa 0,0 l/m 2,4 km/h N 15,6 C 23,8 C 10,1 km/h
04.05.2015 15:00 24,1 C 58 % 1011,2 hPa 0,0 l/m 2,2 km/h N 15,4 C 24,1 C 11,3 km/h
04.05.2015 16:00 21,9 C 65 % 1011,5 hPa 0,0 l/m 3,9 km/h N 15,0 C 21,9 C 10,5 km/h
04.05.2015 17:00 21,7 C 68 % 1011,5 hPa 0,0 l/m 0,2 km/h N 15,6 C 21,7 C 2,4 km/h
04.05.2015 18:00 21,7 C 73 % 1011,3 hPa 0,0 l/m 0,0 km/h N 16,7 C 21,7 C 0,0 km/h
04.05.2015 19:00 20,8 C 76 % 1011,5 hPa 0,0 l/m 0,0 km/h N 16,3 C 20,8 C 0,0 km/h
04.05.2015 20:00 19,6 C 78 % 1011,6 hPa 0,0 l/m 0,0 km/h N 15,6 C 19,6 C 0,0 km/h
04.05.2015 21:00 18,8 C 81 % 1012,1 hPa 0,0 l/m 0,0 km/h N 15,4 C 18,8 C 0,0 km/h
04.05.2015 22:00 18,5 C 81 % 1011,8 hPa 0,0 l/m 0,1 km/h N 15,2 C 18,5 C 2,8 km/h
04.05.2015 23:00 18,0 C 82 % 1011,0 hPa 0,0 l/m 0,0 km/h N 14,8 C 18,0 C 0,4 km/h
05.05.2015 00:00 16,7 C 83 % 1010,6 hPa 0,0 l/m 0,0 km/h N 13,7 C 16,7 C 0,0 km/h
05.05.2015 01:00 15,3 C 83 % 1010,5 hPa 0,0 l/m 0,0 km/h N 12,4 C 15,3 C 0,8 km/h
05.05.2015 02:00 14,5 C 82 % 1010,0 hPa 0,0 l/m 0,0 km/h N 11,5 C 14,5 C 0,0 km/h
05.05.2015 03:00 13,7 C 82 % 1009,6 hPa 0,0 l/m 0,0 km/h N 10,7 C 13,7 C 0,0 km/h
05.05.2015 04:00 13,2 C 81 % 1009,4 hPa 0,0 l/m 0,0 km/h N 10,0 C 13,2 C 0,0 km/h
05.05.2015 05:00 12,8 C 81 % 1009,1 hPa 0,0 l/m 0,0 km/h N 9,6 C 12,8 C 0,0 km/h
05.05.2015 06:00 13,3 C 79 % 1008,8 hPa 0,0 l/m 0,0 km/h N 9,8 C 13,3 C 0,0 km/h
05.05.2015 07:00 14,8 C 77 % 1009,1 hPa 0,0 l/m 0,2 km/h N 10,9 C 14,8 C 1,6 km/h
05.05.2015 08:00 15,7 C 77 % 1009,0 hPa 0,0 l/m 0,3 km/h N 11,6 C 15,7 C 3,6 km/h
05.05.2015 09:00 17,3 C 79 % 1008,8 hPa 0,0 l/m 0,5 km/h N 13,6 C 17,3 C 6,0 km/h
05.05.2015 10:00 20,3 C 78 % 1008,7 hPa 0,0 l/m 1,6 km/h N 16,2 C 20,3 C 8,0 km/h
05.05.2015 11:00 22,9 C 69 % 1008,3 hPa 0,0 l/m 2,6 km/h N 16,8 C 22,9 C 12,5 km/h
05.05.2015 12:00 24,3 C 67 % 1008,2 hPa 0,0 l/m 3,2 km/h N 17,6 C 24,3 C 11,7 km/h
05.05.2015 13:00 25,7 C 62 % 1007,5 hPa 0,0 l/m 3,8 km/h N 17,8 C 25,7 C 13,7 km/h
05.05.2015 14:00 26,6 C 58 % 1006,6 hPa 0,0 l/m 3,7 km/h N 17,6 C 26,6 C 14,1 km/h
05.05.2015 15:00 26,1 C 58 % 1006,2 hPa 0,0 l/m 3,9 km/h N 17,1 C 26,1 C 16,9 km/h
05.05.2015 16:00 26,3 C 57 % 1006,0 hPa 0,0 l/m 3,1 km/h N 17,1 C 26,3 C 13,3 km/h
05.05.2015 17:00 26,2 C 56 % 1005,7 hPa 0,0 l/m 1,4 km/h N 16,7 C 26,2 C 12,1 km/h
05.05.2015 18:00 25,5 C 59 % 1005,5 hPa 0,0 l/m 0,2 km/h N 16,8 C 25,5 C 4,0 km/h
05.05.2015 19:00 24,4 C 64 % 1005,6 hPa 0,0 l/m 0,0 km/h N 17,2 C 24,4 C 1,2 km/h
05.05.2015 20:00 22,5 C 71 % 1006,0 hPa 0,0 l/m 0,0 km/h N 16,9 C 22,5 C 0,0 km/h
05.05.2015 21:00 20,5 C 77 % 1006,5 hPa 0,0 l/m 0,0 km/h N 16,4 C 20,5 C 0,0 km/h
05.05.2015 22:00 19,6 C 80 % 1006,9 hPa 0,0 l/m 0,2 km/h N 16,1 C 19,6 C 3,2 km/h
05.05.2015 23:00 18,9 C 81 % 1007,5 hPa 0,0 l/m 0,0 km/h N 15,6 C 18,9 C 0,4 km/h
06.05.2015 00:00 18,2 C 83 % 1007,6 hPa 0,0 l/m 0,2 km/h N 15,3 C 18,2 C 2,8 km/h
06.05.2015 01:00 18,6 C 83 % 1007,9 hPa 0,0 l/m 0,5 km/h N 15,6 C 18,6 C 4,4 km/h
06.05.2015 02:00 20,9 C 74 % 1008,0 hPa 0,0 l/m 7,1 km/h N 16,0 C 20,4 C 22,9 km/h
06.05.2015 03:00 19,5 C 75 % 1009,0 hPa 0,0 l/m 14,8 km/h N 15,0 C 16,8 C 35,0 km/h
06.05.2015 04:00 18,3 C 74 % 1009,9 hPa 0,0 l/m 11,6 km/h N 13,5 C 16,2 C 27,8 km/h
06.05.2015 05:00 17,9 C 72 % 1010,2 hPa 0,0 l/m 8,1 km/h N 12,7 C 17,2 C 20,9 km/h
06.05.2015 06:00 17,9 C 72 % 1010,6 hPa 0,0 l/m 6,6 km/h N 12,7 C 17,7 C 18,5 km/h
06.05.2015 07:00 18,5 C 70 % 1011,2 hPa 0,0 l/m 4,6 km/h N 12,9 C 18,5 C 16,9 km/h
06.05.2015 08:00 19,0 C 69 % 1011,6 hPa 0,0 l/m 5,6 km/h N 13,2 C 19,0 C 16,9 km/h
06.05.2015 09:00 19,9 C 67 % 1011,3 hPa 0,0 l/m 7,6 km/h N 13,6 C 19,5 C 19,3 km/h
06.05.2015 10:00 20,7 C 65 % 1011,2 hPa 0,0 l/m 9,3 km/h N 13,9 C 19,6 C 21,7 km/h
06.05.2015 11:00 20,5 C 66 % 1011,2 hPa 0,0 l/m 8,5 km/h N 13,8 C 19,7 C 21,3 km/h
06.05.2015 12:00 20,5 C 66 % 1011,0 hPa 0,0 l/m 7,5 km/h N 13,9 C 20,1 C 20,5 km/h
06.05.2015 13:00 20,8 C 66 % 1011,0 hPa 0,0 l/m 9,3 km/h N 14,1 C 19,7 C 21,7 km/h
06.05.2015 14:00 19,5 C 70 % 1011,1 hPa 0,0 l/m 12,8 km/h N 13,8 C 17,3 C 27,8 km/h
06.05.2015 15:00 17,8 C 72 % 1011,8 hPa 0,0 l/m 12,8 km/h N 12,7 C 15,2 C 28,2 km/h
06.05.2015 16:00 15,4 C 81 % 1013,5 hPa 2,6 l/m 10,9 km/h N 12,2 C 13,2 C 30,2 km/h
06.05.2015 17:00 14,7 C 82 % 1013,7 hPa 0,0 l/m 11,2 km/h N 11,6 C 12,3 C 27,4 km/h
06.05.2015 18:00 14,7 C 79 % 1014,1 hPa 0,0 l/m 7,6 km/h N 11,1 C 14,0 C 23,7 km/h
06.05.2015 19:00 14,3 C 79 % 1014,2 hPa 0,0 l/m 8,5 km/h N 10,6 C 13,1 C 24,5 km/h
06.05.2015 20:00 14,0 C 77 % 1014,4 hPa 0,0 l/m 11,4 km/h N 10,1 C 11,4 C 28,2 km/h
06.05.2015 21:00 14,1 C 75 % 1014,7 hPa 0,0 l/m 9,2 km/h N 9,8 C 12,6 C 25,7 km/h
06.05.2015 22:00 14,3 C 75 % 1015,1 hPa 0,0 l/m 10,6 km/h N 9,9 C 12,1 C 26,9 km/h
06.05.2015 23:00 14,5 C 74 % 1015,1 hPa 0,3 l/m 12,4 km/h N 9,8 C 11,6 C 31,4 km/h
07.05.2015 00:00 14,2 C 74 % 1015,6 hPa 0,0 l/m 12,5 km/h N 9,7 C 11,2 C 29,3 km/h
07.05.2015 01:00 13,7 C 74 % 1016,4 hPa 0,0 l/m 10,7 km/h N 9,2 C 11,4 C 26,5 km/h
07.05.2015 02:00 13,5 C 74 % 1016,7 hPa 0,0 l/m 8,7 km/h N 8,9 C 12,2 C 22,9 km/h
07.05.2015 03:00 13,6 C 69 % 1016,7 hPa 0,0 l/m 8,6 km/h N 7,9 C 12,3 C 22,5 km/h
07.05.2015 04:00 13,6 C 65 % 1016,8 hPa 0,0 l/m 8,3 km/h N 7,2 C 12,5 C 20,9 km/h
07.05.2015 05:00 13,3 C 66 % 1016,9 hPa 0,0 l/m 6,9 km/h N 7,1 C 12,9 C 18,1 km/h
07.05.2015 06:00 13,9 C 64 % 1017,2 hPa 0,0 l/m 6,7 km/h N 7,2 C 13,4 C 18,1 km/h
07.05.2015 07:00 15,0 C 61 % 1017,6 hPa 0,0 l/m 7,8 km/h N 7,6 C 14,2 C 20,9 km/h
07.05.2015 08:00 16,5 C 59 % 1018,0 hPa 0,0 l/m 9,9 km/h N 8,5 C 14,9 C 24,5 km/h
07.05.2015 09:00 17,0 C 57 % 1018,4 hPa 0,0 l/m 9,6 km/h N 8,3 C 15,5 C 23,7 km/h
07.05.2015 10:00 17,9 C 58 % 1018,6 hPa 0,0 l/m 10,4 km/h N 9,4 C 16,2 C 25,3 km/h
07.05.2015 11:00 18,6 C 56 % 1018,7 hPa 0,0 l/m 10,1 km/h N 9,5 C 17,1 C 22,1 km/h
07.05.2015 12:00 19,2 C 55 % 1018,4 hPa 0,0 l/m 8,4 km/h N 9,8 C 18,4 C 22,5 km/h
07.05.2015 13:00 20,0 C 52 % 1018,0 hPa 0,0 l/m 9,6 km/h N 9,8 C 18,7 C 23,3 km/h
07.05.2015 14:00 19,9 C 52 % 1017,4 hPa 0,0 l/m 8,8 km/h N 9,7 C 19,0 C 20,9 km/h
07.05.2015 15:00 20,3 C 52 % 1017,0 hPa 0,0 l/m 7,0 km/h N 10,2 C 20,1 C 20,1 km/h
07.05.2015 16:00 20,4 C 53 % 1016,7 hPa 0,0 l/m 7,5 km/h N 10,6 C 20,0 C 20,5 km/h
07.05.2015 17:00 20,3 C 53 % 1016,6 hPa 0,0 l/m 6,7 km/h N 10,4 C 20,1 C 18,1 km/h
07.05.2015 18:00 20,4 C 52 % 1016,5 hPa 0,0 l/m 4,5 km/h N 10,1 C 20,4 C 15,7 km/h
07.05.2015 19:00 20,1 C 52 % 1016,7 hPa 0,0 l/m 2,1 km/h N 9,9 C 20,1 C 8,5 km/h
07.05.2015 20:00 18,5 C 58 % 1017,4 hPa 0,0 l/m 0,1 km/h N 10,1 C 18,5 C 1,6 km/h
07.05.2015 21:00 15,4 C 68 % 1018,3 hPa 0,0 l/m 0,3 km/h N 9,5 C 15,4 C 3,2 km/h
07.05.2015 22:00 14,0 C 72 % 1018,8 hPa 0,0 l/m 0,1 km/h N 9,1 C 14,0 C 2,0 km/h
07.05.2015 23:00 13,3 C 76 % 1019,0 hPa 0,0 l/m 0,0 km/h N 9,1 C 13,3 C 0,4 km/h
08.05.2015 00:00 12,2 C 80 % 1019,1 hPa 0,0 l/m 0,0 km/h N 8,8 C 12,2 C 0,0 km/h
08.05.2015 01:00 11,5 C 82 % 1019,2 hPa 0,0 l/m 0,0 km/h N 8,4 C 11,5 C 0,0 km/h
08.05.2015 02:00 11,4 C 83 % 1019,0 hPa 0,0 l/m 0,0 km/h N 8,6 C 11,4 C 0,0 km/h
08.05.2015 03:00 11,4 C 82 % 1018,8 hPa 0,0 l/m 0,0 km/h N 8,5 C 11,4 C 0,0 km/h
08.05.2015 04:00 11,3 C 82 % 1018,8 hPa 0,0 l/m 0,0 km/h N 8,3 C 11,3 C 0,0 km/h
08.05.2015 05:00 11,5 C 82 % 1019,0 hPa 0,0 l/m 0,0 km/h N 8,5 C 11,5 C 0,0 km/h
08.05.2015 06:00 11,8 C 82 % 1019,0 hPa 0,0 l/m 0,0 km/h N 8,8 C 11,8 C 0,0 km/h
08.05.2015 07:00 12,4 C 80 % 1019,0 hPa 0,0 l/m 0,1 km/h N 9,1 C 12,4 C 1,2 km/h
08.05.2015 08:00 14,2 C 73 % 1019,0 hPa 0,0 l/m 0,3 km/h N 9,4 C 14,2 C 4,4 km/h
08.05.2015 09:00 15,9 C 65 % 1018,7 hPa 0,0 l/m 1,0 km/h N 9,3 C 15,9 C 6,8 km/h
08.05.2015 10:00 18,1 C 60 % 1018,0 hPa 0,0 l/m 2,7 km/h N 10,0 C 18,1 C 11,7 km/h
08.05.2015 11:00 20,0 C 52 % 1017,3 hPa 0,0 l/m 3,2 km/h N 9,7 C 20,0 C 12,5 km/h
08.05.2015 12:00 21,5 C 51 % 1016,5 hPa 0,0 l/m 3,2 km/h N 10,9 C 21,5 C 15,3 km/h
08.05.2015 13:00 22,8 C 51 % 1015,6 hPa 0,0 l/m 4,0 km/h N 12,0 C 22,8 C 16,9 km/h
08.05.2015 14:00 23,9 C 48 % 1014,7 hPa 0,0 l/m 3,3 km/h N 12,2 C 23,9 C 15,3 km/h
08.05.2015 15:00 23,6 C 51 % 1014,0 hPa 0,0 l/m 2,9 km/h N 12,8 C 23,6 C 13,7 km/h
08.05.2015 16:00 23,7 C 47 % 1013,3 hPa 0,0 l/m 4,8 km/h N 11,8 C 23,7 C 18,1 km/h
08.05.2015 17:00 23,7 C 45 % 1013,0 hPa 0,0 l/m 4,7 km/h N 11,0 C 23,7 C 15,7 km/h
08.05.2015 18:00 23,3 C 45 % 1012,9 hPa 0,0 l/m 4,4 km/h N 10,7 C 23,3 C 12,9 km/h
08.05.2015 19:00 21,5 C 46 % 1012,8 hPa 0,0 l/m 1,5 km/h N 9,3 C 21,5 C 8,1 km/h
08.05.2015 20:00 19,3 C 54 % 1012,9 hPa 0,0 l/m 0,3 km/h N 9,6 C 19,3 C 4,0 km/h
08.05.2015 21:00 17,6 C 60 % 1013,1 hPa 0,0 l/m 0,3 km/h N 9,6 C 17,6 C 3,2 km/h
08.05.2015 22:00 15,7 C 67 % 1013,1 hPa 0,0 l/m 0,1 km/h N 9,6 C 15,7 C 1,2 km/h
08.05.2015 23:00 14,1 C 74 % 1013,3 hPa 0,0 l/m 0,2 km/h N 9,4 C 14,1 C 2,4 km/h
09.05.2015 00:00 12,8 C 79 % 1013,3 hPa 0,0 l/m 0,0 km/h N 9,2 C 12,8 C 0,0 km/h
09.05.2015 01:00 12,3 C 80 % 1013,3 hPa 0,0 l/m 0,1 km/h N 9,0 C 12,3 C 2,0 km/h
09.05.2015 02:00 11,4 C 81 % 1013,3 hPa 0,0 l/m 0,0 km/h N 8,3 C 11,4 C 0,0 km/h
09.05.2015 03:00 11,7 C 83 % 1013,9 hPa 0,0 l/m 1,5 km/h N 8,8 C 11,7 C 6,4 km/h
09.05.2015 04:00 13,6 C 78 % 1014,3 hPa 0,0 l/m 1,4 km/h N 9,8 C 13,6 C 6,4 km/h
09.05.2015 05:00 13,2 C 78 % 1014,7 hPa 0,0 l/m 0,3 km/h N 9,4 C 13,2 C 4,0 km/h
09.05.2015 06:00 13,0 C 79 % 1015,3 hPa 0,0 l/m 2,3 km/h N 9,5 C 13,0 C 8,9 km/h
09.05.2015 07:00 14,9 C 74 % 1015,7 hPa 0,0 l/m 6,0 km/h N 10,4 C 14,3 C 17,3 km/h
09.05.2015 08:00 17,3 C 69 % 1015,8 hPa 0,0 l/m 13,3 km/h N 11,4 C 14,5 C 30,2 km/h
09.05.2015 09:00 18,3 C 65 % 1016,3 hPa 0,0 l/m 14,7 km/h N 11,4 C 15,3 C 34,2 km/h
09.05.2015 10:00 19,3 C 63 % 1016,6 hPa 0,0 l/m 14,3 km/h N 12,0 C 16,6 C 31,4 km/h
09.05.2015 11:00 20,3 C 61 % 1017,2 hPa 0,0 l/m 14,0 km/h N 12,4 C 17,9 C 31,0 km/h
09.05.2015 12:00 19,8 C 63 % 1017,5 hPa 0,0 l/m 13,6 km/h N 12,5 C 17,4 C 31,0 km/h
09.05.2015 13:00 19,7 C 62 % 1017,7 hPa 0,0 l/m 9,1 km/h N 12,2 C 18,7 C 24,1 km/h
09.05.2015 14:00 20,0 C 59 % 1017,8 hPa 0,0 l/m 9,8 km/h N 11,8 C 18,8 C 26,5 km/h
09.05.2015 15:00 19,8 C 60 % 1017,8 hPa 0,0 l/m 10,6 km/h N 11,9 C 18,3 C 25,3 km/h
09.05.2015 16:00 20,3 C 59 % 1017,6 hPa 0,0 l/m 8,6 km/h N 12,1 C 19,5 C 23,3 km/h
09.05.2015 17:00 19,8 C 60 % 1017,6 hPa 0,0 l/m 7,9 km/h N 11,8 C 19,0 C 23,3 km/h
09.05.2015 18:00 19,5 C 61 % 1017,4 hPa 0,0 l/m 6,9 km/h N 11,8 C 19,0 C 20,9 km/h
09.05.2015 19:00 18,8 C 63 % 1017,6 hPa 0,0 l/m 6,1 km/h N 11,6 C 18,6 C 21,3 km/h
09.05.2015 20:00 17,7 C 66 % 1017,7 hPa 0,0 l/m 7,6 km/h N 11,2 C 16,8 C 23,3 km/h
09.05.2015 21:00 17,6 C 67 % 1018,5 hPa 0,0 l/m 11,1 km/h N 11,3 C 15,6 C 27,0 km/h
09.05.2015 22:00 17,0 C 68 % 1018,8 hPa 0,0 l/m 7,6 km/h N 11,1 C 16,2 C 22,5 km/h
09.05.2015 23:00 16,3 C 69 % 1019,2 hPa 0,0 l/m 5,0 km/h N 10,5 C 16,3 C 18,1 km/h
10.05.2015 00:00 16,0 C 67 % 1019,2 hPa 0,0 l/m 11,1 km/h N 9,8 C 13,8 C 26,2 km/h
10.05.2015 01:00 16,0 C 66 % 1019,3 hPa 0,0 l/m 11,7 km/h N 9,6 C 13,6 C 28,6 km/h
10.05.2015 02:00 16,2 C 65 % 1019,7 hPa 0,0 l/m 12,1 km/h N 9,6 C 13,6 C 27,4 km/h
10.05.2015 03:00 16,1 C 66 % 1019,9 hPa 0,0 l/m 9,7 km/h N 9,6 C 14,5 C 23,3 km/h
10.05.2015 04:00 15,8 C 67 % 1020,3 hPa 0,0 l/m 6,9 km/h N 9,7 C 15,5 C 20,5 km/h
10.05.2015 05:00 15,7 C 68 % 1021,1 hPa 0,0 l/m 11,9 km/h N 9,7 C 13,2 C 28,6 km/h
10.05.2015 06:00 15,1 C 69 % 1021,5 hPa 0,0 l/m 9,8 km/h N 9,5 C 13,4 C 24,1 km/h
10.05.2015 07:00 15,4 C 69 % 1022,1 hPa 0,0 l/m 10,3 km/h N 9,7 C 13,5 C 26,9 km/h
10.05.2015 08:00 15,4 C 70 % 1022,9 hPa 0,0 l/m 9,1 km/h N 10,0 C 14,0 C 24,9 km/h
10.05.2015 09:00 16,7 C 66 % 1022,9 hPa 0,0 l/m 11,5 km/h N 10,2 C 14,4 C 31,0 km/h
10.05.2015 10:00 17,8 C 61 % 1022,8 hPa 0,0 l/m 10,5 km/h N 10,0 C 16,0 C 28,6 km/h
10.05.2015 11:00 18,4 C 58 % 1022,9 hPa 0,0 l/m 10,5 km/h N 9,8 C 16,7 C 24,5 km/h
10.05.2015 12:00 18,8 C 52 % 1022,6 hPa 0,0 l/m 12,2 km/h N 8,8 C 16,6 C 30,6 km/h
10.05.2015 13:00 18,7 C 51 % 1022,5 hPa 0,0 l/m 12,4 km/h N 8,4 C 16,5 C 29,4 km/h
10.05.2015 14:00 19,6 C 48 % 1022,1 hPa 0,0 l/m 12,7 km/h N 8,2 C 17,4 C 31,4 km/h
10.05.2015 15:00 19,6 C 46 % 1021,7 hPa 0,0 l/m 11,4 km/h N 7,5 C 17,8 C 25,4 km/h
10.05.2015 16:00 19,3 C 46 % 1021,9 hPa 0,0 l/m 8,2 km/h N 7,4 C 18,6 C 25,3 km/h
10.05.2015 17:00 19,6 C 43 % 1021,9 hPa 0,0 l/m 10,0 km/h N 6,8 C 18,3 C 27,4 km/h
10.05.2015 18:00 19,5 C 48 % 1022,3 hPa 0,0 l/m 6,2 km/h N 8,0 C 19,3 C 20,9 km/h
10.05.2015 19:00 17,9 C 52 % 1022,7 hPa 0,0 l/m 2,1 km/h N 7,9 C 17,9 C 10,8 km/h
10.05.2015 20:00 16,0 C 57 % 1023,4 hPa 0,0 l/m 0,6 km/h N 7,4 C 16,0 C 6,0 km/h
10.05.2015 21:00 15,6 C 51 % 1024,2 hPa 0,0 l/m 1,1 km/h N 5,6 C 15,6 C 8,0 km/h
10.05.2015 22:00 15,1 C 53 % 1024,7 hPa 0,0 l/m 0,5 km/h N 5,5 C 15,1 C 5,2 km/h
10.05.2015 23:00 13,7 C 58 % 1025,6 hPa 0,0 l/m 0,3 km/h N 5,6 C 13,7 C 3,2 km/h
Min-Datum _ 09.05.15 10.05.15 05.05.15 - 04.05.15 - 10.05.15 07.05.15 04.05.15
_ Min-Zeit 02:45 17:30 18:30 - 00:00 - 21:30 01:30 00:00
Minimum _ 10,9 C 42 % 1005,4 hPa - 0,0 km/h - 5,2 C 10,3 C 0,0 km/h
Max-Datum _ 05.05.15 04.05.15 10.05.15 06.05.15 09.05.15 - 05.05.15 05.05.15 06.05.15
_ Max-Zeit 14:30 09:30 23:45 16:15 09:15 - 13:00 14:30 03:15
Maximum _ 27,0 C 83 % 1025,8 hPa 2,6 l/m 17,7 km/h
N
- 18,0 C 27,0 C 40,2 km/h
N
Durchschnitt _ 17,6 C 67 % 1014,7 hPa #2,9 l/m 5,0 km/h N 11,2 C 16,9 C 14,2 km/h